sensor_id;sensor_type;location;lat;lon;timestamp;P1;durP1;ratioP1;P2;durP2;ratioP2
21424;SDS011;10873;51.132;16.848;2022-09-09T00:00:44;7.90;;;3.47;;
21424;SDS011;10873;51.132;16.848;2022-09-09T00:03:30;3.65;;;3.35;;
21424;SDS011;10873;51.132;16.848;2022-09-09T00:06:04;5.40;;;3.47;;
21424;SDS011;10873;51.132;16.848;2022-09-09T00:08:38;5.50;;;3.28;;
21424;SDS011;10873;51.132;16.848;2022-09-09T00:11:11;5.25;;;3.45;;
21424;SDS011;10873;51.132;16.848;2022-09-09T00:13:43;4.68;;;3.40;;
21424;SDS011;10873;51.132;16.848;2022-09-09T00:16:15;3.70;;;3.30;;
21424;SDS011;10873;51.132;16.848;2022-09-09T00:18:49;3.40;;;3.08;;
21424;SDS011;10873;51.132;16.848;2022-09-09T00:21:22;4.28;;;3.20;;
21424;SDS011;10873;51.132;16.848;2022-09-09T00:23:54;3.75;;;3.20;;
21424;SDS011;10873;51.132;16.848;2022-09-09T00:26:22;4.05;;;3.25;;
21424;SDS011;10873;51.132;16.848;2022-09-09T00:28:58;3.33;;;3.03;;
21424;SDS011;10873;51.132;16.848;2022-09-09T00:31:30;3.67;;;3.20;;
21424;SDS011;10873;51.132;16.848;2022-09-09T00:33:58;3.40;;;3.10;;
21424;SDS011;10873;51.132;16.848;2022-09-09T00:36:30;3.83;;;2.88;;
21424;SDS011;10873;51.132;16.848;2022-09-09T00:39:00;3.30;;;3.00;;
21424;SDS011;10873;51.132;16.848;2022-09-09T00:41:30;3.30;;;3.00;;
21424;SDS011;10873;51.132;16.848;2022-09-09T00:44:10;3.42;;;3.13;;
21424;SDS011;10873;51.132;16.848;2022-09-09T00:47:01;3.72;;;3.00;;
21424;SDS011;10873;51.132;16.848;2022-09-09T00:49:42;5.43;;;2.80;;
21424;SDS011;10873;51.132;16.848;2022-09-09T00:52:23;3.25;;;2.70;;
21424;SDS011;10873;51.132;16.848;2022-09-09T00:55:00;3.67;;;3.22;;
21424;SDS011;10873;51.132;16.848;2022-09-09T00:57:33;3.05;;;2.70;;
21424;SDS011;10873;51.132;16.848;2022-09-09T01:03:02;3.20;;;2.88;;
21424;SDS011;10873;51.132;16.848;2022-09-09T01:05:46;3.47;;;2.58;;
21424;SDS011;10873;51.132;16.848;2022-09-09T01:08:24;2.85;;;2.55;;
21424;SDS011;10873;51.132;16.848;2022-09-09T01:11:01;3.10;;;2.80;;
21424;SDS011;10873;51.132;16.848;2022-09-09T01:13:28;3.13;;;2.60;;
21424;SDS011;10873;51.132;16.848;2022-09-09T01:15:56;2.70;;;2.50;;
21424;SDS011;10873;51.132;16.848;2022-09-09T01:18:26;3.47;;;2.30;;
21424;SDS011;10873;51.132;16.848;2022-09-09T01:20:58;3.45;;;2.70;;
21424;SDS011;10873;51.132;16.848;2022-09-09T01:23:34;2.45;;;2.25;;
21424;SDS011;10873;51.132;16.848;2022-09-09T01:26:20;2.60;;;2.40;;
21424;SDS011;10873;51.132;16.848;2022-09-09T01:28:50;2.72;;;2.53;;
21424;SDS011;10873;51.132;16.848;2022-09-09T01:31:21;3.65;;;2.42;;
21424;SDS011;10873;51.132;16.848;2022-09-09T01:33:53;2.33;;;2.13;;
21424;SDS011;10873;51.132;16.848;2022-09-09T01:36:21;2.30;;;2.10;;
21424;SDS011;10873;51.132;16.848;2022-09-09T01:38:53;2.33;;;2.13;;
21424;SDS011;10873;51.132;16.848;2022-09-09T01:41:21;3.35;;;2.47;;
21424;SDS011;10873;51.132;16.848;2022-09-09T01:43:47;2.45;;;2.17;;
21424;SDS011;10873;51.132;16.848;2022-09-09T01:46:13;2.50;;;2.30;;
21424;SDS011;10873;51.132;16.848;2022-09-09T01:48:41;2.50;;;2.30;;
21424;SDS011;10873;51.132;16.848;2022-09-09T01:51:08;2.45;;;2.25;;
21424;SDS011;10873;51.132;16.848;2022-09-09T01:53:38;3.80;;;2.13;;
21424;SDS011;10873;51.132;16.848;2022-09-09T01:56:08;2.55;;;2.13;;
21424;SDS011;10873;51.132;16.848;2022-09-09T01:58:55;2.50;;;2.17;;
21424;SDS011;10873;51.132;16.848;2022-09-09T02:01:32;2.42;;;2.20;;
21424;SDS011;10873;51.132;16.848;2022-09-09T02:04:12;2.53;;;2.30;;
21424;SDS011;10873;51.132;16.848;2022-09-09T02:06:47;2.13;;;1.92;;
21424;SDS011;10873;51.132;16.848;2022-09-09T02:09:16;2.70;;;1.92;;
21424;SDS011;10873;51.132;16.848;2022-09-09T02:11:46;2.17;;;2.00;;
21424;SDS011;10873;51.132;16.848;2022-09-09T02:14:16;2.10;;;1.90;;
21424;SDS011;10873;51.132;16.848;2022-09-09T02:16:47;1.75;;;1.55;;
21424;SDS011;10873;51.132;16.848;2022-09-09T02:19:19;1.90;;;1.80;;
21424;SDS011;10873;51.132;16.848;2022-09-09T02:21:52;2.47;;;2.28;;
21424;SDS011;10873;51.132;16.848;2022-09-09T02:24:20;2.67;;;2.00;;
21424;SDS011;10873;51.132;16.848;2022-09-09T02:26:48;2.03;;;1.88;;
21424;SDS011;10873;51.132;16.848;2022-09-09T02:29:19;1.85;;;1.75;;
21424;SDS011;10873;51.132;16.848;2022-09-09T02:34:24;3.10;;;1.95;;
21424;SDS011;10873;51.132;16.848;2022-09-09T02:36:53;2.33;;;1.92;;
21424;SDS011;10873;51.132;16.848;2022-09-09T02:51:23;4.00;;;1.80;;
21424;SDS011;10873;51.132;16.848;2022-09-09T02:53:57;1.80;;;1.70;;
21424;SDS011;10873;51.132;16.848;2022-09-09T02:56:29;2.15;;;1.90;;
21424;SDS011;10873;51.132;16.848;2022-09-09T02:58:59;2.45;;;2.05;;
21424;SDS011;10873;51.132;16.848;2022-09-09T03:01:28;2.33;;;1.83;;
21424;SDS011;10873;51.132;16.848;2022-09-09T03:03:54;2.05;;;1.85;;
21424;SDS011;10873;51.132;16.848;2022-09-09T03:06:21;3.03;;;1.70;;
21424;SDS011;10873;51.132;16.848;2022-09-09T03:08:47;2.42;;;2.10;;
21424;SDS011;10873;51.132;16.848;2022-09-09T03:11:15;2.78;;;1.90;;
21424;SDS011;10873;51.132;16.848;2022-09-09T03:13:41;2.30;;;1.58;;
21424;SDS011;10873;51.132;16.848;2022-09-09T03:16:07;1.92;;;1.70;;
21424;SDS011;10873;51.132;16.848;2022-09-09T03:18:33;3.60;;;1.70;;
21424;SDS011;10873;51.132;16.848;2022-09-09T03:20:59;1.95;;;1.80;;
21424;SDS011;10873;51.132;16.848;2022-09-09T03:23:27;4.50;;;2.00;;
21424;SDS011;10873;51.132;16.848;2022-09-09T03:25:53;2.08;;;1.70;;
21424;SDS011;10873;51.132;16.848;2022-09-09T03:28:22;2.15;;;1.80;;
21424;SDS011;10873;51.132;16.848;2022-09-09T03:30:50;1.98;;;1.77;;
21424;SDS011;10873;51.132;16.848;2022-09-09T03:33:16;3.58;;;2.10;;
21424;SDS011;10873;51.132;16.848;2022-09-09T03:35:44;2.35;;;1.90;;
21424;SDS011;10873;51.132;16.848;2022-09-09T03:38:13;3.15;;;1.70;;
21424;SDS011;10873;51.132;16.848;2022-09-09T03:40:41;1.98;;;1.70;;
21424;SDS011;10873;51.132;16.848;2022-09-09T03:43:14;2.00;;;1.65;;
21424;SDS011;10873;51.132;16.848;2022-09-09T03:45:41;2.05;;;1.45;;
21424;SDS011;10873;51.132;16.848;2022-09-09T03:48:12;1.88;;;1.70;;
21424;SDS011;10873;51.132;16.848;2022-09-09T03:50:38;2.58;;;1.75;;
21424;SDS011;10873;51.132;16.848;2022-09-09T03:53:04;1.67;;;1.50;;
21424;SDS011;10873;51.132;16.848;2022-09-09T03:55:31;2.75;;;1.45;;
21424;SDS011;10873;51.132;16.848;2022-09-09T03:57:59;1.52;;;1.42;;
21424;SDS011;10873;51.132;16.848;2022-09-09T04:00:25;3.15;;;1.98;;
21424;SDS011;10873;51.132;16.848;2022-09-09T04:02:51;1.70;;;1.60;;
21424;SDS011;10873;51.132;16.848;2022-09-09T04:05:21;2.65;;;1.40;;
21424;SDS011;10873;51.132;16.848;2022-09-09T04:07:47;2.58;;;1.52;;
21424;SDS011;10873;51.132;16.848;2022-09-09T04:10:13;1.52;;;1.42;;
21424;SDS011;10873;51.132;16.848;2022-09-09T04:12:41;2.95;;;2.00;;
21424;SDS011;10873;51.132;16.848;2022-09-09T04:15:09;1.60;;;1.50;;
21424;SDS011;10873;51.132;16.848;2022-09-09T04:17:35;1.63;;;1.50;;
21424;SDS011;10873;51.132;16.848;2022-09-09T04:20:02;3.63;;;1.40;;
21424;SDS011;10873;51.132;16.848;2022-09-09T04:22:28;1.58;;;1.48;;
21424;SDS011;10873;51.132;16.848;2022-09-09T04:24:54;3.60;;;1.38;;
21424;SDS011;10873;51.132;16.848;2022-09-09T04:27:20;3.95;;;1.23;;
21424;SDS011;10873;51.132;16.848;2022-09-09T04:29:46;30.58;;;2.25;;
21424;SDS011;10873;51.132;16.848;2022-09-09T04:32:14;19.35;;;2.22;;
21424;SDS011;10873;51.132;16.848;2022-09-09T04:34:40;4.40;;;1.67;;
21424;SDS011;10873;51.132;16.848;2022-09-09T04:37:06;4.28;;;1.80;;
21424;SDS011;10873;51.132;16.848;2022-09-09T04:39:32;5.47;;;1.45;;
21424;SDS011;10873;51.132;16.848;2022-09-09T04:41:59;2.55;;;1.60;;
21424;SDS011;10873;51.132;16.848;2022-09-09T04:44:25;2.20;;;1.50;;
21424;SDS011;10873;51.132;16.848;2022-09-09T04:46:51;5.85;;;1.50;;
21424;SDS011;10873;51.132;16.848;2022-09-09T04:49:19;2.17;;;1.58;;
21424;SDS011;10873;51.132;16.848;2022-09-09T04:51:45;6.13;;;1.45;;
21424;SDS011;10873;51.132;16.848;2022-09-09T04:54:12;3.28;;;1.52;;
21424;SDS011;10873;51.132;16.848;2022-09-09T04:56:38;5.50;;;1.27;;
21424;SDS011;10873;51.132;16.848;2022-09-09T04:59:04;4.30;;;1.50;;
21424;SDS011;10873;51.132;16.848;2022-09-09T05:01:30;4.43;;;1.40;;
21424;SDS011;10873;51.132;16.848;2022-09-09T05:03:57;1.40;;;1.30;;
21424;SDS011;10873;51.132;16.848;2022-09-09T05:06:25;2.38;;;1.60;;
21424;SDS011;10873;51.132;16.848;2022-09-09T05:08:51;7.03;;;1.80;;
21424;SDS011;10873;51.132;16.848;2022-09-09T05:11:18;7.50;;;1.92;;
21424;SDS011;10873;51.132;16.848;2022-09-09T05:13:45;7.53;;;1.75;;
21424;SDS011;10873;51.132;16.848;2022-09-09T05:16:12;7.95;;;1.83;;
21424;SDS011;10873;51.132;16.848;2022-09-09T05:18:39;6.00;;;1.63;;
21424;SDS011;10873;51.132;16.848;2022-09-09T05:21:06;8.80;;;1.83;;
21424;SDS011;10873;51.132;16.848;2022-09-09T05:23:33;3.80;;;1.25;;
21424;SDS011;10873;51.132;16.848;2022-09-09T05:26:00;4.75;;;1.60;;
21424;SDS011;10873;51.132;16.848;2022-09-09T05:28:27;7.50;;;1.90;;
21424;SDS011;10873;51.132;16.848;2022-09-09T05:30:55;5.43;;;1.67;;
21424;SDS011;10873;51.132;16.848;2022-09-09T05:33:26;3.78;;;1.70;;
21424;SDS011;10873;51.132;16.848;2022-09-09T05:35:56;6.85;;;1.58;;
21424;SDS011;10873;51.132;16.848;2022-09-09T05:38:23;5.68;;;1.60;;
21424;SDS011;10873;51.132;16.848;2022-09-09T05:40:53;5.45;;;1.63;;
21424;SDS011;10873;51.132;16.848;2022-09-09T05:43:21;2.55;;;1.63;;
21424;SDS011;10873;51.132;16.848;2022-09-09T05:45:48;3.22;;;1.33;;
21424;SDS011;10873;51.132;16.848;2022-09-09T05:48:23;4.35;;;1.70;;
21424;SDS011;10873;51.132;16.848;2022-09-09T05:50:52;5.65;;;1.40;;
21424;SDS011;10873;51.132;16.848;2022-09-09T05:53:19;3.42;;;1.65;;
21424;SDS011;10873;51.132;16.848;2022-09-09T05:55:45;5.38;;;1.50;;
21424;SDS011;10873;51.132;16.848;2022-09-09T05:58:14;2.78;;;1.48;;
21424;SDS011;10873;51.132;16.848;2022-09-09T06:00:42;4.55;;;1.50;;
21424;SDS011;10873;51.132;16.848;2022-09-09T06:03:10;4.10;;;1.25;;
21424;SDS011;10873;51.132;16.848;2022-09-09T06:05:36;6.43;;;1.40;;
21424;SDS011;10873;51.132;16.848;2022-09-09T06:08:02;3.00;;;1.50;;
21424;SDS011;10873;51.132;16.848;2022-09-09T06:10:29;6.93;;;1.45;;
21424;SDS011;10873;51.132;16.848;2022-09-09T06:12:55;4.05;;;1.30;;
21424;SDS011;10873;51.132;16.848;2022-09-09T06:15:22;5.60;;;1.30;;
21424;SDS011;10873;51.132;16.848;2022-09-09T06:17:53;6.55;;;1.52;;
21424;SDS011;10873;51.132;16.848;2022-09-09T06:20:20;3.72;;;1.45;;
21424;SDS011;10873;51.132;16.848;2022-09-09T06:22:47;2.92;;;1.23;;
21424;SDS011;10873;51.132;16.848;2022-09-09T06:25:14;2.47;;;1.52;;
21424;SDS011;10873;51.132;16.848;2022-09-09T06:27:40;1.90;;;1.30;;
21424;SDS011;10873;51.132;16.848;2022-09-09T06:30:07;4.00;;;1.40;;
21424;SDS011;10873;51.132;16.848;2022-09-09T06:32:36;1.30;;;1.20;;
21424;SDS011;10873;51.132;16.848;2022-09-09T06:35:03;4.65;;;1.20;;
21424;SDS011;10873;51.132;16.848;2022-09-09T06:37:29;1.95;;;1.30;;
21424;SDS011;10873;51.132;16.848;2022-09-09T06:39:56;2.35;;;1.20;;
21424;SDS011;10873;51.132;16.848;2022-09-09T06:42:22;4.82;;;1.40;;
21424;SDS011;10873;51.132;16.848;2022-09-09T06:44:48;2.95;;;1.50;;
21424;SDS011;10873;51.132;16.848;2022-09-09T06:47:14;4.13;;;1.50;;
21424;SDS011;10873;51.132;16.848;2022-09-09T06:49:42;3.03;;;1.50;;
21424;SDS011;10873;51.132;16.848;2022-09-09T06:52:09;2.85;;;1.52;;
21424;SDS011;10873;51.132;16.848;2022-09-09T06:54:35;2.45;;;1.30;;
21424;SDS011;10873;51.132;16.848;2022-09-09T06:57:02;2.28;;;1.23;;
21424;SDS011;10873;51.132;16.848;2022-09-09T06:59:28;1.92;;;1.20;;
21424;SDS011;10873;51.132;16.848;2022-09-09T07:01:56;1.30;;;1.20;;
21424;SDS011;10873;51.132;16.848;2022-09-09T07:04:23;2.65;;;1.20;;
21424;SDS011;10873;51.132;16.848;2022-09-09T07:06:51;1.92;;;1.23;;
21424;SDS011;10873;51.132;16.848;2022-09-09T07:09:18;8.38;;;1.33;;
21424;SDS011;10873;51.132;16.848;2022-09-09T07:11:44;2.95;;;1.33;;
21424;SDS011;10873;51.132;16.848;2022-09-09T07:14:12;4.63;;;1.52;;
21424;SDS011;10873;51.132;16.848;2022-09-09T07:16:40;3.67;;;1.20;;
21424;SDS011;10873;51.132;16.848;2022-09-09T07:19:07;4.57;;;1.40;;
21424;SDS011;10873;51.132;16.848;2022-09-09T07:21:33;3.08;;;1.60;;
21424;SDS011;10873;51.132;16.848;2022-09-09T07:24:01;2.78;;;1.35;;
21424;SDS011;10873;51.132;16.848;2022-09-09T07:26:29;1.75;;;1.20;;
21424;SDS011;10873;51.132;16.848;2022-09-09T07:28:56;2.53;;;1.35;;
21424;SDS011;10873;51.132;16.848;2022-09-09T07:31:23;4.15;;;1.20;;
21424;SDS011;10873;51.132;16.848;2022-09-09T07:33:51;26.80;;;2.20;;
21424;SDS011;10873;51.132;16.848;2022-09-09T07:36:18;19.02;;;2.33;;
21424;SDS011;10873;51.132;16.848;2022-09-09T07:38:49;12.93;;;2.03;;
21424;SDS011;10873;51.132;16.848;2022-09-09T07:41:19;9.70;;;2.00;;
21424;SDS011;10873;51.132;16.848;2022-09-09T07:43:47;13.70;;;1.75;;
21424;SDS011;10873;51.132;16.848;2022-09-09T07:46:14;2.67;;;1.52;;
21424;SDS011;10873;51.132;16.848;2022-09-09T07:48:44;6.85;;;1.52;;
21424;SDS011;10873;51.132;16.848;2022-09-09T07:51:11;8.65;;;1.55;;
21424;SDS011;10873;51.132;16.848;2022-09-09T07:53:42;4.47;;;1.58;;
21424;SDS011;10873;51.132;16.848;2022-09-09T07:56:09;13.88;;;1.58;;
21424;SDS011;10873;51.132;16.848;2022-09-09T07:58:38;5.38;;;1.40;;
21424;SDS011;10873;51.132;16.848;2022-09-09T08:01:08;3.00;;;1.48;;
21424;SDS011;10873;51.132;16.848;2022-09-09T08:03:36;6.30;;;1.40;;
21424;SDS011;10873;51.132;16.848;2022-09-09T08:06:04;5.63;;;1.70;;
21424;SDS011;10873;51.132;16.848;2022-09-09T08:08:35;4.32;;;1.45;;
21424;SDS011;10873;51.132;16.848;2022-09-09T08:11:03;2.97;;;1.25;;
21424;SDS011;10873;51.132;16.848;2022-09-09T08:13:32;3.55;;;1.50;;
21424;SDS011;10873;51.132;16.848;2022-09-09T08:16:08;2.70;;;1.40;;
21424;SDS011;10873;51.132;16.848;2022-09-09T08:18:35;3.60;;;1.40;;
21424;SDS011;10873;51.132;16.848;2022-09-09T08:21:05;3.83;;;1.50;;
21424;SDS011;10873;51.132;16.848;2022-09-09T08:23:33;2.83;;;1.50;;
21424;SDS011;10873;51.132;16.848;2022-09-09T08:26:03;3.42;;;1.40;;
21424;SDS011;10873;51.132;16.848;2022-09-09T08:28:31;2.67;;;1.48;;
21424;SDS011;10873;51.132;16.848;2022-09-09T08:31:04;4.47;;;1.40;;
21424;SDS011;10873;51.132;16.848;2022-09-09T08:33:33;4.03;;;1.10;;
21424;SDS011;10873;51.132;16.848;2022-09-09T08:36:01;4.38;;;1.17;;
21424;SDS011;10873;51.132;16.848;2022-09-09T08:38:28;1.38;;;1.27;;
21424;SDS011;10873;51.132;16.848;2022-09-09T08:40:55;1.17;;;1.00;;
21424;SDS011;10873;51.132;16.848;2022-09-09T08:43:29;3.28;;;0.98;;
21424;SDS011;10873;51.132;16.848;2022-09-09T08:45:58;2.40;;;1.40;;
21424;SDS011;10873;51.132;16.848;2022-09-09T08:48:42;4.43;;;1.08;;
21424;SDS011;10873;51.132;16.848;2022-09-09T08:51:14;2.63;;;1.00;;
21424;SDS011;10873;51.132;16.848;2022-09-09T08:53:41;1.88;;;1.05;;
21424;SDS011;10873;51.132;16.848;2022-09-09T08:56:11;2.60;;;1.20;;
21424;SDS011;10873;51.132;16.848;2022-09-09T08:58:41;3.00;;;1.10;;
21424;SDS011;10873;51.132;16.848;2022-09-09T09:04:17;2.75;;;1.05;;
21424;SDS011;10873;51.132;16.848;2022-09-09T09:06:57;4.05;;;1.20;;
21424;SDS011;10873;51.132;16.848;2022-09-09T09:09:36;2.65;;;1.27;;
21424;SDS011;10873;51.132;16.848;2022-09-09T09:12:14;1.90;;;1.00;;
21424;SDS011;10873;51.132;16.848;2022-09-09T09:14:42;5.13;;;1.33;;
21424;SDS011;10873;51.132;16.848;2022-09-09T09:17:11;4.78;;;1.40;;
21424;SDS011;10873;51.132;16.848;2022-09-09T09:19:42;3.25;;;1.40;;
21424;SDS011;10873;51.132;16.848;2022-09-09T09:22:11;2.33;;;1.20;;
21424;SDS011;10873;51.132;16.848;2022-09-09T09:24:43;3.70;;;1.00;;
21424;SDS011;10873;51.132;16.848;2022-09-09T09:27:21;2.75;;;1.30;;
21424;SDS011;10873;51.132;16.848;2022-09-09T09:29:56;2.47;;;1.15;;
21424;SDS011;10873;51.132;16.848;2022-09-09T09:32:24;4.88;;;1.08;;
21424;SDS011;10873;51.132;16.848;2022-09-09T09:34:58;2.35;;;1.25;;
21424;SDS011;10873;51.132;16.848;2022-09-09T09:37:30;4.65;;;1.15;;
21424;SDS011;10873;51.132;16.848;2022-09-09T09:40:07;4.28;;;1.27;;
21424;SDS011;10873;51.132;16.848;2022-09-09T09:42:35;2.90;;;1.27;;
21424;SDS011;10873;51.132;16.848;2022-09-09T09:45:07;5.47;;;1.50;;
21424;SDS011;10873;51.132;16.848;2022-09-09T09:47:35;3.05;;;1.45;;
21424;SDS011;10873;51.132;16.848;2022-09-09T09:50:03;3.05;;;1.42;;
21424;SDS011;10873;51.132;16.848;2022-09-09T09:52:30;8.73;;;1.30;;
21424;SDS011;10873;51.132;16.848;2022-09-09T09:54:58;3.30;;;1.30;;
21424;SDS011;10873;51.132;16.848;2022-09-09T09:57:27;2.97;;;1.42;;
21424;SDS011;10873;51.132;16.848;2022-09-09T10:00:03;3.55;;;1.25;;
21424;SDS011;10873;51.132;16.848;2022-09-09T10:02:39;3.60;;;1.38;;
21424;SDS011;10873;51.132;16.848;2022-09-09T10:05:13;4.75;;;1.20;;
21424;SDS011;10873;51.132;16.848;2022-09-09T10:07:42;2.60;;;1.40;;
21424;SDS011;10873;51.132;16.848;2022-09-09T10:10:12;2.42;;;1.30;;
21424;SDS011;10873;51.132;16.848;2022-09-09T10:12:47;6.65;;;1.75;;
21424;SDS011;10873;51.132;16.848;2022-09-09T10:15:29;2.92;;;1.40;;
21424;SDS011;10873;51.132;16.848;2022-09-09T10:18:03;4.05;;;1.25;;
21424;SDS011;10873;51.132;16.848;2022-09-09T10:20:45;2.25;;;1.15;;
21424;SDS011;10873;51.132;16.848;2022-09-09T10:23:26;3.83;;;1.30;;
21424;SDS011;10873;51.132;16.848;2022-09-09T10:26:12;2.75;;;1.30;;
21424;SDS011;10873;51.132;16.848;2022-09-09T10:31:45;4.18;;;1.60;;
21424;SDS011;10873;51.132;16.848;2022-09-09T10:34:33;6.45;;;1.65;;
21424;SDS011;10873;51.132;16.848;2022-09-09T10:37:16;1.92;;;1.23;;
21424;SDS011;10873;51.132;16.848;2022-09-09T10:39:52;4.40;;;1.30;;
21424;SDS011;10873;51.132;16.848;2022-09-09T10:42:27;7.18;;;1.50;;
21424;SDS011;10873;51.132;16.848;2022-09-09T10:44:59;2.53;;;1.20;;
21424;SDS011;10873;51.132;16.848;2022-09-09T10:47:45;2.15;;;1.30;;
21424;SDS011;10873;51.132;16.848;2022-09-09T10:50:33;2.97;;;1.73;;
21424;SDS011;10873;51.132;16.848;2022-09-09T10:53:17;4.20;;;1.52;;
21424;SDS011;10873;51.132;16.848;2022-09-09T10:55:50;5.22;;;1.60;;
21424;SDS011;10873;51.132;16.848;2022-09-09T10:58:20;5.90;;;1.90;;
21424;SDS011;10873;51.132;16.848;2022-09-09T11:00:53;6.85;;;2.88;;
21424;SDS011;10873;51.132;16.848;2022-09-09T11:03:24;9.40;;;3.75;;
21424;SDS011;10873;51.132;16.848;2022-09-09T11:05:55;11.13;;;5.10;;
21424;SDS011;10873;51.132;16.848;2022-09-09T11:08:27;11.38;;;5.18;;
21424;SDS011;10873;51.132;16.848;2022-09-09T11:10:57;14.88;;;5.45;;
21424;SDS011;10873;51.132;16.848;2022-09-09T11:13:29;11.70;;;5.72;;
21424;SDS011;10873;51.132;16.848;2022-09-09T11:16:13;13.07;;;5.65;;
21424;SDS011;10873;51.132;16.848;2022-09-09T11:18:46;17.83;;;5.82;;
21424;SDS011;10873;51.132;16.848;2022-09-09T11:21:15;12.63;;;4.70;;
21424;SDS011;10873;51.132;16.848;2022-09-09T11:23:48;11.35;;;5.00;;
21424;SDS011;10873;51.132;16.848;2022-09-09T11:26:21;9.35;;;4.82;;
21424;SDS011;10873;51.132;16.848;2022-09-09T11:28:59;10.73;;;4.80;;
21424;SDS011;10873;51.132;16.848;2022-09-09T11:31:43;8.68;;;4.55;;
21424;SDS011;10873;51.132;16.848;2022-09-09T11:34:31;9.27;;;4.13;;
21424;SDS011;10873;51.132;16.848;2022-09-09T11:37:12;8.35;;;3.35;;
21424;SDS011;10873;51.132;16.848;2022-09-09T11:39:56;6.35;;;3.08;;
21424;SDS011;10873;51.132;16.848;2022-09-09T11:42:39;6.53;;;2.78;;
21424;SDS011;10873;51.132;16.848;2022-09-09T11:45:11;6.82;;;2.63;;
21424;SDS011;10873;51.132;16.848;2022-09-09T11:47:53;7.15;;;2.55;;
21424;SDS011;10873;51.132;16.848;2022-09-09T11:50:30;5.55;;;2.40;;
21424;SDS011;10873;51.132;16.848;2022-09-09T11:53:04;5.68;;;2.40;;
21424;SDS011;10873;51.132;16.848;2022-09-09T11:55:42;8.93;;;2.30;;
21424;SDS011;10873;51.132;16.848;2022-09-09T11:58:14;6.72;;;2.10;;
21424;SDS011;10873;51.132;16.848;2022-09-09T12:00:43;7.20;;;2.13;;
21424;SDS011;10873;51.132;16.848;2022-09-09T12:06:08;22.58;;;2.70;;
21424;SDS011;10873;51.132;16.848;2022-09-09T12:08:36;11.75;;;2.63;;
21424;SDS011;10873;51.132;16.848;2022-09-09T12:11:07;6.97;;;2.92;;
21424;SDS011;10873;51.132;16.848;2022-09-09T12:13:33;6.57;;;2.40;;
21424;SDS011;10873;51.132;16.848;2022-09-09T12:16:00;4.28;;;1.95;;
21424;SDS011;10873;51.132;16.848;2022-09-09T12:18:32;5.65;;;2.10;;
21424;SDS011;10873;51.132;16.848;2022-09-09T12:21:01;4.97;;;2.20;;
21424;SDS011;10873;51.132;16.848;2022-09-09T12:23:38;6.65;;;1.98;;
21424;SDS011;10873;51.132;16.848;2022-09-09T12:26:18;4.72;;;2.25;;
21424;SDS011;10873;51.132;16.848;2022-09-09T12:29:00;5.95;;;2.08;;
21424;SDS011;10873;51.132;16.848;2022-09-09T12:31:34;5.95;;;2.05;;
21424;SDS011;10873;51.132;16.848;2022-09-09T12:34:11;4.45;;;2.25;;
21424;SDS011;10873;51.132;16.848;2022-09-09T12:36:41;7.07;;;2.25;;
21424;SDS011;10873;51.132;16.848;2022-09-09T12:39:15;5.88;;;2.33;;
21424;SDS011;10873;51.132;16.848;2022-09-09T12:41:52;4.75;;;2.17;;
21424;SDS011;10873;51.132;16.848;2022-09-09T12:44:22;6.13;;;2.35;;
21424;SDS011;10873;51.132;16.848;2022-09-09T12:46:50;6.20;;;2.30;;
21424;SDS011;10873;51.132;16.848;2022-09-09T12:49:23;5.63;;;2.30;;
21424;SDS011;10873;51.132;16.848;2022-09-09T12:52:01;5.78;;;2.33;;
21424;SDS011;10873;51.132;16.848;2022-09-09T12:54:31;5.20;;;2.33;;
21424;SDS011;10873;51.132;16.848;2022-09-09T12:56:59;4.15;;;1.90;;
21424;SDS011;10873;51.132;16.848;2022-09-09T12:59:26;4.45;;;2.17;;
21424;SDS011;10873;51.132;16.848;2022-09-09T13:02:00;5.60;;;2.17;;
21424;SDS011;10873;51.132;16.848;2022-09-09T13:04:27;4.95;;;2.08;;
21424;SDS011;10873;51.132;16.848;2022-09-09T13:06:53;3.47;;;2.03;;
21424;SDS011;10873;51.132;16.848;2022-09-09T13:09:20;4.70;;;1.85;;
21424;SDS011;10873;51.132;16.848;2022-09-09T13:11:47;4.10;;;1.80;;
21424;SDS011;10873;51.132;16.848;2022-09-09T13:14:18;3.97;;;1.98;;
21424;SDS011;10873;51.132;16.848;2022-09-09T13:16:54;4.00;;;2.20;;
21424;SDS011;10873;51.132;16.848;2022-09-09T13:19:21;3.53;;;1.85;;
21424;SDS011;10873;51.132;16.848;2022-09-09T13:21:51;2.72;;;1.77;;
21424;SDS011;10873;51.132;16.848;2022-09-09T13:27:19;4.68;;;1.73;;
21424;SDS011;10873;51.132;16.848;2022-09-09T13:29:53;5.03;;;2.03;;
21424;SDS011;10873;51.132;16.848;2022-09-09T13:32:23;3.00;;;1.70;;
21424;SDS011;10873;51.132;16.848;2022-09-09T13:34:50;4.28;;;1.70;;
21424;SDS011;10873;51.132;16.848;2022-09-09T13:37:19;4.05;;;1.83;;
21424;SDS011;10873;51.132;16.848;2022-09-09T13:39:51;5.25;;;1.90;;
21424;SDS011;10873;51.132;16.848;2022-09-09T13:42:21;3.03;;;1.58;;
21424;SDS011;10873;51.132;16.848;2022-09-09T13:44:52;3.75;;;1.58;;
21424;SDS011;10873;51.132;16.848;2022-09-09T13:47:21;2.85;;;1.80;;
21424;SDS011;10873;51.132;16.848;2022-09-09T13:49:53;3.47;;;1.70;;
21424;SDS011;10873;51.132;16.848;2022-09-09T13:52:19;4.28;;;1.60;;
21424;SDS011;10873;51.132;16.848;2022-09-09T13:54:47;1.88;;;1.52;;
21424;SDS011;10873;51.132;16.848;2022-09-09T13:57:15;3.17;;;1.70;;
21424;SDS011;10873;51.132;16.848;2022-09-09T13:59:43;4.65;;;1.70;;
21424;SDS011;10873;51.132;16.848;2022-09-09T14:02:11;3.53;;;1.45;;
21424;SDS011;10873;51.132;16.848;2022-09-09T14:04:37;5.18;;;1.70;;
21424;SDS011;10873;51.132;16.848;2022-09-09T14:07:07;2.65;;;1.60;;
21424;SDS011;10873;51.132;16.848;2022-09-09T14:09:36;9.07;;;2.00;;
21424;SDS011;10873;51.132;16.848;2022-09-09T14:12:03;5.07;;;1.83;;
21424;SDS011;10873;51.132;16.848;2022-09-09T14:14:29;7.43;;;1.38;;
21424;SDS011;10873;51.132;16.848;2022-09-09T14:16:56;5.05;;;1.80;;
21424;SDS011;10873;51.132;16.848;2022-09-09T14:19:23;5.38;;;1.70;;
21424;SDS011;10873;51.132;16.848;2022-09-09T14:21:49;5.63;;;1.40;;
21424;SDS011;10873;51.132;16.848;2022-09-09T14:24:15;5.68;;;1.58;;
21424;SDS011;10873;51.132;16.848;2022-09-09T14:26:42;3.58;;;1.42;;
21424;SDS011;10873;51.132;16.848;2022-09-09T14:29:08;4.57;;;1.42;;
21424;SDS011;10873;51.132;16.848;2022-09-09T14:31:34;2.78;;;1.40;;
21424;SDS011;10873;51.132;16.848;2022-09-09T14:34:00;4.40;;;1.40;;
21424;SDS011;10873;51.132;16.848;2022-09-09T14:36:27;4.30;;;1.40;;
21424;SDS011;10873;51.132;16.848;2022-09-09T14:38:53;5.68;;;1.20;;
21424;SDS011;10873;51.132;16.848;2022-09-09T14:41:20;5.97;;;1.70;;
21424;SDS011;10873;51.132;16.848;2022-09-09T14:43:47;4.95;;;1.55;;
21424;SDS011;10873;51.132;16.848;2022-09-09T14:46:16;3.38;;;1.60;;
21424;SDS011;10873;51.132;16.848;2022-09-09T14:48:44;2.90;;;1.30;;
21424;SDS011;10873;51.132;16.848;2022-09-09T14:51:14;2.38;;;1.50;;
21424;SDS011;10873;51.132;16.848;2022-09-09T14:53:44;2.67;;;1.42;;
21424;SDS011;10873;51.132;16.848;2022-09-09T14:56:11;2.70;;;1.40;;
21424;SDS011;10873;51.132;16.848;2022-09-09T14:58:38;4.03;;;1.50;;
21424;SDS011;10873;51.132;16.848;2022-09-09T15:01:06;4.38;;;1.48;;
21424;SDS011;10873;51.132;16.848;2022-09-09T15:03:35;3.80;;;1.42;;
21424;SDS011;10873;51.132;16.848;2022-09-09T15:06:06;2.30;;;1.40;;
21424;SDS011;10873;51.132;16.848;2022-09-09T15:08:34;3.55;;;1.38;;
21424;SDS011;10873;51.132;16.848;2022-09-09T15:11:02;7.32;;;1.45;;
21424;SDS011;10873;51.132;16.848;2022-09-09T15:13:30;6.22;;;1.67;;
21424;SDS011;10873;51.132;16.848;2022-09-09T15:16:02;3.25;;;1.67;;
21424;SDS011;10873;51.132;16.848;2022-09-09T15:18:29;3.05;;;1.50;;
21424;SDS011;10873;51.132;16.848;2022-09-09T15:20:55;11.68;;;1.85;;